sensor_id;sensor_type;location;lat;lon;timestamp;P1;durP1;ratioP1;P2;durP2;ratioP2
72569;SDS011;60594;50.204;8.844;2023-12-22T00:01:55;1.95;;;0.68;;
72569;SDS011;60594;50.204;8.844;2023-12-22T00:04:22;5.22;;;1.20;;
72569;SDS011;60594;50.204;8.844;2023-12-22T00:06:48;3.13;;;0.82;;
72569;SDS011;60594;50.204;8.844;2023-12-22T00:09:15;4.80;;;0.90;;
72569;SDS011;60594;50.204;8.844;2023-12-22T00:11:41;6.38;;;1.63;;
72569;SDS011;60594;50.204;8.844;2023-12-22T00:14:08;3.33;;;0.80;;
72569;SDS011;60594;50.204;8.844;2023-12-22T00:16:36;3.17;;;0.80;;
72569;SDS011;60594;50.204;8.844;2023-12-22T00:19:03;3.38;;;0.90;;
72569;SDS011;60594;50.204;8.844;2023-12-22T00:21:30;1.55;;;0.68;;
72569;SDS011;60594;50.204;8.844;2023-12-22T00:23:58;2.75;;;0.80;;
72569;SDS011;60594;50.204;8.844;2023-12-22T00:26:24;0.80;;;0.43;;
72569;SDS011;60594;50.204;8.844;2023-12-22T00:28:51;2.75;;;0.90;;
72569;SDS011;60594;50.204;8.844;2023-12-22T00:31:17;3.25;;;0.50;;
72569;SDS011;60594;50.204;8.844;2023-12-22T00:33:44;1.60;;;0.73;;
72569;SDS011;60594;50.204;8.844;2023-12-22T00:36:11;2.30;;;0.68;;
72569;SDS011;60594;50.204;8.844;2023-12-22T00:38:37;2.28;;;0.50;;
72569;SDS011;60594;50.204;8.844;2023-12-22T00:41:03;2.72;;;0.93;;
72569;SDS011;60594;50.204;8.844;2023-12-22T00:43:30;1.48;;;0.40;;
72569;SDS011;60594;50.204;8.844;2023-12-22T00:45:57;1.95;;;0.50;;
72569;SDS011;60594;50.204;8.844;2023-12-22T00:48:24;1.40;;;0.73;;
72569;SDS011;60594;50.204;8.844;2023-12-22T00:50:50;0.20;;;0.20;;
72569;SDS011;60594;50.204;8.844;2023-12-22T00:53:17;1.85;;;0.40;;
72569;SDS011;60594;50.204;8.844;2023-12-22T00:55:43;0.80;;;0.43;;
72569;SDS011;60594;50.204;8.844;2023-12-22T00:58:10;0.95;;;0.43;;
72569;SDS011;60594;50.204;8.844;2023-12-22T01:00:36;1.45;;;0.40;;
72569;SDS011;60594;50.204;8.844;2023-12-22T01:03:03;2.25;;;0.50;;
72569;SDS011;60594;50.204;8.844;2023-12-22T01:05:29;2.30;;;0.73;;
72569;SDS011;60594;50.204;8.844;2023-12-22T01:07:56;1.08;;;0.40;;
72569;SDS011;60594;50.204;8.844;2023-12-22T01:10:22;1.50;;;0.45;;
72569;SDS011;60594;50.204;8.844;2023-12-22T01:12:49;1.38;;;0.40;;
72569;SDS011;60594;50.204;8.844;2023-12-22T01:15:15;1.88;;;1.00;;
72569;SDS011;60594;50.204;8.844;2023-12-22T01:17:42;2.25;;;0.68;;
72569;SDS011;60594;50.204;8.844;2023-12-22T01:20:08;1.90;;;0.40;;
72569;SDS011;60594;50.204;8.844;2023-12-22T01:22:35;0.95;;;0.50;;
72569;SDS011;60594;50.204;8.844;2023-12-22T01:27:31;1.42;;;0.60;;
72569;SDS011;60594;50.204;8.844;2023-12-22T01:29:57;0.60;;;0.35;;
72569;SDS011;60594;50.204;8.844;2023-12-22T01:32:24;3.42;;;0.60;;
72569;SDS011;60594;50.204;8.844;2023-12-22T01:34:50;1.00;;;0.50;;
72569;SDS011;60594;50.204;8.844;2023-12-22T01:37:17;1.10;;;0.40;;
72569;SDS011;60594;50.204;8.844;2023-12-22T01:39:43;0.50;;;0.30;;
72569;SDS011;60594;50.204;8.844;2023-12-22T01:42:10;0.35;;;0.30;;
72569;SDS011;60594;50.204;8.844;2023-12-22T01:44:36;0.82;;;0.52;;
72569;SDS011;60594;50.204;8.844;2023-12-22T01:47:03;2.00;;;0.40;;
72569;SDS011;60594;50.204;8.844;2023-12-22T01:49:30;1.00;;;0.40;;
72569;SDS011;60594;50.204;8.844;2023-12-22T01:51:56;2.63;;;0.50;;
72569;SDS011;60594;50.204;8.844;2023-12-22T01:54:23;0.47;;;0.30;;
72569;SDS011;60594;50.204;8.844;2023-12-22T01:56:50;1.55;;;0.40;;
72569;SDS011;60594;50.204;8.844;2023-12-22T01:59:17;1.98;;;0.70;;
72569;SDS011;60594;50.204;8.844;2023-12-22T02:01:43;2.45;;;0.63;;
72569;SDS011;60594;50.204;8.844;2023-12-22T02:04:11;1.75;;;0.50;;
72569;SDS011;60594;50.204;8.844;2023-12-22T02:09:08;1.48;;;0.73;;
72569;SDS011;60594;50.204;8.844;2023-12-22T02:11:35;1.52;;;0.38;;
72569;SDS011;60594;50.204;8.844;2023-12-22T02:14:04;1.38;;;0.30;;
72569;SDS011;60594;50.204;8.844;2023-12-22T02:16:55;2.50;;;0.88;;
72569;SDS011;60594;50.204;8.844;2023-12-22T02:19:43;1.80;;;0.52;;
72569;SDS011;60594;50.204;8.844;2023-12-22T02:22:12;1.40;;;0.52;;
72569;SDS011;60594;50.204;8.844;2023-12-22T02:24:39;0.70;;;0.35;;
72569;SDS011;60594;50.204;8.844;2023-12-22T02:27:14;1.98;;;0.80;;
72569;SDS011;60594;50.204;8.844;2023-12-22T02:29:52;2.03;;;0.77;;
72569;SDS011;60594;50.204;8.844;2023-12-22T02:32:30;1.17;;;0.30;;
72569;SDS011;60594;50.204;8.844;2023-12-22T02:35:00;2.65;;;0.65;;
72569;SDS011;60594;50.204;8.844;2023-12-22T02:37:35;1.02;;;0.40;;
72569;SDS011;60594;50.204;8.844;2023-12-22T02:40:03;1.42;;;0.35;;
72569;SDS011;60594;50.204;8.844;2023-12-22T02:42:31;2.13;;;0.60;;
72569;SDS011;60594;50.204;8.844;2023-12-22T02:44:59;2.28;;;0.52;;
72569;SDS011;60594;50.204;8.844;2023-12-22T02:47:26;0.82;;;0.45;;
72569;SDS011;60594;50.204;8.844;2023-12-22T02:49:55;2.50;;;0.43;;
72569;SDS011;60594;50.204;8.844;2023-12-22T02:52:22;1.88;;;0.63;;
72569;SDS011;60594;50.204;8.844;2023-12-22T02:54:48;1.50;;;0.38;;
72569;SDS011;60594;50.204;8.844;2023-12-22T02:57:15;1.08;;;0.47;;
72569;SDS011;60594;50.204;8.844;2023-12-22T02:59:41;2.10;;;0.63;;
72569;SDS011;60594;50.204;8.844;2023-12-22T03:02:08;1.65;;;0.52;;
72569;SDS011;60594;50.204;8.844;2023-12-22T03:04:34;1.42;;;0.57;;
72569;SDS011;60594;50.204;8.844;2023-12-22T03:07:01;1.98;;;0.55;;
72569;SDS011;60594;50.204;8.844;2023-12-22T03:09:27;1.45;;;0.40;;
72569;SDS011;60594;50.204;8.844;2023-12-22T03:11:53;4.70;;;0.98;;
72569;SDS011;60594;50.204;8.844;2023-12-22T03:14:22;2.58;;;0.50;;
72569;SDS011;60594;50.204;8.844;2023-12-22T03:16:49;1.23;;;0.40;;
72569;SDS011;60594;50.204;8.844;2023-12-22T03:19:15;1.63;;;0.35;;
72569;SDS011;60594;50.204;8.844;2023-12-22T03:21:42;1.80;;;0.43;;
72569;SDS011;60594;50.204;8.844;2023-12-22T03:24:08;0.32;;;0.30;;
72569;SDS011;60594;50.204;8.844;2023-12-22T03:26:35;0.25;;;0.22;;
72569;SDS011;60594;50.204;8.844;2023-12-22T03:29:01;1.15;;;0.63;;
72569;SDS011;60594;50.204;8.844;2023-12-22T03:31:28;2.72;;;0.55;;
72569;SDS011;60594;50.204;8.844;2023-12-22T03:33:54;0.82;;;0.55;;
72569;SDS011;60594;50.204;8.844;2023-12-22T03:36:20;0.30;;;0.30;;
72569;SDS011;60594;50.204;8.844;2023-12-22T03:38:47;1.15;;;0.38;;
72569;SDS011;60594;50.204;8.844;2023-12-22T03:41:13;1.55;;;0.60;;
72569;SDS011;60594;50.204;8.844;2023-12-22T03:43:39;0.80;;;0.40;;
72569;SDS011;60594;50.204;8.844;2023-12-22T03:46:06;0.57;;;0.22;;
72569;SDS011;60594;50.204;8.844;2023-12-22T03:48:33;1.20;;;0.52;;
72569;SDS011;60594;50.204;8.844;2023-12-22T03:50:59;1.98;;;0.77;;
72569;SDS011;60594;50.204;8.844;2023-12-22T03:53:26;0.50;;;0.30;;
72569;SDS011;60594;50.204;8.844;2023-12-22T03:55:52;0.40;;;0.35;;
72569;SDS011;60594;50.204;8.844;2023-12-22T03:58:19;0.90;;;0.40;;
72569;SDS011;60594;50.204;8.844;2023-12-22T04:00:45;1.63;;;0.30;;
72569;SDS011;60594;50.204;8.844;2023-12-22T04:03:12;1.52;;;0.40;;
72569;SDS011;60594;50.204;8.844;2023-12-22T04:05:38;1.40;;;0.60;;
72569;SDS011;60594;50.204;8.844;2023-12-22T04:08:05;1.08;;;0.63;;
72569;SDS011;60594;50.204;8.844;2023-12-22T04:10:32;2.33;;;0.65;;
72569;SDS011;60594;50.204;8.844;2023-12-22T04:12:58;2.72;;;0.77;;
72569;SDS011;60594;50.204;8.844;2023-12-22T04:15:25;3.28;;;0.82;;
72569;SDS011;60594;50.204;8.844;2023-12-22T04:17:51;4.65;;;1.30;;
72569;SDS011;60594;50.204;8.844;2023-12-22T04:20:18;4.90;;;1.17;;
72569;SDS011;60594;50.204;8.844;2023-12-22T04:22:44;3.83;;;1.20;;
72569;SDS011;60594;50.204;8.844;2023-12-22T04:25:11;6.38;;;1.77;;
72569;SDS011;60594;50.204;8.844;2023-12-22T04:27:37;3.08;;;1.02;;
72569;SDS011;60594;50.204;8.844;2023-12-22T04:30:04;3.38;;;1.42;;
72569;SDS011;60594;50.204;8.844;2023-12-22T04:32:31;3.78;;;1.30;;
72569;SDS011;60594;50.204;8.844;2023-12-22T04:34:58;3.90;;;1.17;;
72569;SDS011;60594;50.204;8.844;2023-12-22T04:37:24;4.22;;;1.60;;
72569;SDS011;60594;50.204;8.844;2023-12-22T04:39:51;3.03;;;1.33;;
72569;SDS011;60594;50.204;8.844;2023-12-22T04:42:17;3.75;;;1.08;;
72569;SDS011;60594;50.204;8.844;2023-12-22T04:44:44;4.13;;;1.15;;
72569;SDS011;60594;50.204;8.844;2023-12-22T04:47:11;3.47;;;1.10;;
72569;SDS011;60594;50.204;8.844;2023-12-22T04:49:38;2.78;;;0.82;;
72569;SDS011;60594;50.204;8.844;2023-12-22T04:52:05;5.10;;;1.10;;
72569;SDS011;60594;50.204;8.844;2023-12-22T04:54:31;7.22;;;1.33;;
72569;SDS011;60594;50.204;8.844;2023-12-22T04:56:58;3.63;;;0.80;;
72569;SDS011;60594;50.204;8.844;2023-12-22T04:59:24;3.75;;;1.20;;
72569;SDS011;60594;50.204;8.844;2023-12-22T05:01:50;5.43;;;1.60;;
72569;SDS011;60594;50.204;8.844;2023-12-22T05:04:17;5.82;;;0.95;;
72569;SDS011;60594;50.204;8.844;2023-12-22T05:06:44;3.75;;;1.00;;
72569;SDS011;60594;50.204;8.844;2023-12-22T05:09:11;2.88;;;0.88;;
72569;SDS011;60594;50.204;8.844;2023-12-22T05:11:38;5.78;;;1.10;;
72569;SDS011;60594;50.204;8.844;2023-12-22T05:14:05;5.40;;;1.45;;
72569;SDS011;60594;50.204;8.844;2023-12-22T05:16:31;3.78;;;1.27;;
72569;SDS011;60594;50.204;8.844;2023-12-22T05:18:58;4.72;;;1.27;;
72569;SDS011;60594;50.204;8.844;2023-12-22T05:21:24;3.25;;;1.48;;
72569;SDS011;60594;50.204;8.844;2023-12-22T05:23:51;3.50;;;1.30;;
72569;SDS011;60594;50.204;8.844;2023-12-22T05:26:18;3.55;;;1.30;;
72569;SDS011;60594;50.204;8.844;2023-12-22T05:28:45;6.00;;;1.33;;
72569;SDS011;60594;50.204;8.844;2023-12-22T05:31:11;5.32;;;1.55;;
72569;SDS011;60594;50.204;8.844;2023-12-22T05:33:38;4.88;;;1.55;;
72569;SDS011;60594;50.204;8.844;2023-12-22T05:36:05;3.55;;;1.40;;
72569;SDS011;60594;50.204;8.844;2023-12-22T05:38:31;4.63;;;1.63;;
72569;SDS011;60594;50.204;8.844;2023-12-22T05:40:58;4.68;;;1.13;;
72569;SDS011;60594;50.204;8.844;2023-12-22T05:43:24;3.65;;;1.23;;
72569;SDS011;60594;50.204;8.844;2023-12-22T05:45:51;8.45;;;1.92;;
72569;SDS011;60594;50.204;8.844;2023-12-22T05:48:17;4.78;;;1.58;;
72569;SDS011;60594;50.204;8.844;2023-12-22T05:50:45;3.70;;;1.25;;
72569;SDS011;60594;50.204;8.844;2023-12-22T05:53:12;6.68;;;1.70;;
72569;SDS011;60594;50.204;8.844;2023-12-22T05:55:38;5.80;;;1.55;;
72569;SDS011;60594;50.204;8.844;2023-12-22T05:58:05;6.38;;;1.70;;
72569;SDS011;60594;50.204;8.844;2023-12-22T06:00:31;4.25;;;1.35;;
72569;SDS011;60594;50.204;8.844;2023-12-22T06:02:58;5.95;;;1.70;;
72569;SDS011;60594;50.204;8.844;2023-12-22T06:05:24;7.00;;;1.40;;
72569;SDS011;60594;50.204;8.844;2023-12-22T06:07:51;4.18;;;1.23;;
72569;SDS011;60594;50.204;8.844;2023-12-22T06:10:17;4.00;;;1.25;;
72569;SDS011;60594;50.204;8.844;2023-12-22T06:12:44;7.22;;;1.23;;
72569;SDS011;60594;50.204;8.844;2023-12-22T06:15:10;6.05;;;1.45;;
72569;SDS011;60594;50.204;8.844;2023-12-22T06:17:37;5.80;;;1.50;;
72569;SDS011;60594;50.204;8.844;2023-12-22T06:20:03;7.60;;;1.75;;
72569;SDS011;60594;50.204;8.844;2023-12-22T06:22:30;4.90;;;1.25;;
72569;SDS011;60594;50.204;8.844;2023-12-22T06:24:56;2.65;;;0.82;;
72569;SDS011;60594;50.204;8.844;2023-12-22T06:27:23;6.25;;;1.38;;
72569;SDS011;60594;50.204;8.844;2023-12-22T06:29:49;3.75;;;0.98;;
72569;SDS011;60594;50.204;8.844;2023-12-22T06:32:16;3.55;;;1.33;;
72569;SDS011;60594;50.204;8.844;2023-12-22T06:34:43;8.43;;;1.90;;
72569;SDS011;60594;50.204;8.844;2023-12-22T06:37:09;6.10;;;1.30;;
72569;SDS011;60594;50.204;8.844;2023-12-22T06:39:37;3.15;;;1.42;;
72569;SDS011;60594;50.204;8.844;2023-12-22T06:42:03;6.80;;;1.50;;
72569;SDS011;60594;50.204;8.844;2023-12-22T06:44:31;6.10;;;1.35;;
72569;SDS011;60594;50.204;8.844;2023-12-22T06:46:58;5.15;;;1.60;;
72569;SDS011;60594;50.204;8.844;2023-12-22T06:49:24;6.70;;;1.27;;
72569;SDS011;60594;50.204;8.844;2023-12-22T06:51:51;5.78;;;1.35;;
72569;SDS011;60594;50.204;8.844;2023-12-22T06:54:18;5.20;;;1.05;;
72569;SDS011;60594;50.204;8.844;2023-12-22T06:56:45;5.13;;;1.50;;
72569;SDS011;60594;50.204;8.844;2023-12-22T06:59:11;6.15;;;1.33;;
72569;SDS011;60594;50.204;8.844;2023-12-22T07:01:38;4.22;;;1.48;;
72569;SDS011;60594;50.204;8.844;2023-12-22T07:04:04;4.35;;;1.33;;
72569;SDS011;60594;50.204;8.844;2023-12-22T07:06:33;6.18;;;1.55;;
72569;SDS011;60594;50.204;8.844;2023-12-22T07:11:47;5.90;;;1.40;;
72569;SDS011;60594;50.204;8.844;2023-12-22T07:14:14;5.28;;;1.23;;
72569;SDS011;60594;50.204;8.844;2023-12-22T07:16:44;5.15;;;1.55;;
72569;SDS011;60594;50.204;8.844;2023-12-22T07:19:11;5.15;;;1.63;;
72569;SDS011;60594;50.204;8.844;2023-12-22T07:21:40;5.15;;;1.90;;
72569;SDS011;60594;50.204;8.844;2023-12-22T07:24:07;8.32;;;1.55;;
72569;SDS011;60594;50.204;8.844;2023-12-22T07:26:34;8.85;;;1.65;;
72569;SDS011;60594;50.204;8.844;2023-12-22T07:29:00;10.23;;;1.85;;
72569;SDS011;60594;50.204;8.844;2023-12-22T07:31:27;4.05;;;1.65;;
72569;SDS011;60594;50.204;8.844;2023-12-22T07:33:53;10.40;;;1.52;;
72569;SDS011;60594;50.204;8.844;2023-12-22T07:36:20;7.65;;;1.85;;
72569;SDS011;60594;50.204;8.844;2023-12-22T07:38:47;4.65;;;1.35;;
72569;SDS011;60594;50.204;8.844;2023-12-22T07:41:13;7.85;;;1.83;;
72569;SDS011;60594;50.204;8.844;2023-12-22T07:43:40;6.40;;;1.23;;
72569;SDS011;60594;50.204;8.844;2023-12-22T07:46:08;6.65;;;1.50;;
72569;SDS011;60594;50.204;8.844;2023-12-22T07:48:35;5.35;;;1.38;;
72569;SDS011;60594;50.204;8.844;2023-12-22T07:51:01;6.55;;;1.67;;
72569;SDS011;60594;50.204;8.844;2023-12-22T07:53:28;7.05;;;1.95;;
72569;SDS011;60594;50.204;8.844;2023-12-22T07:55:55;5.18;;;1.30;;
72569;SDS011;60594;50.204;8.844;2023-12-22T07:58:22;8.60;;;1.83;;
72569;SDS011;60594;50.204;8.844;2023-12-22T08:00:48;5.40;;;1.63;;
72569;SDS011;60594;50.204;8.844;2023-12-22T08:03:14;5.57;;;1.77;;
72569;SDS011;60594;50.204;8.844;2023-12-22T08:05:41;7.97;;;1.25;;
72569;SDS011;60594;50.204;8.844;2023-12-22T08:08:07;7.50;;;1.38;;
72569;SDS011;60594;50.204;8.844;2023-12-22T08:10:34;4.32;;;1.38;;
72569;SDS011;60594;50.204;8.844;2023-12-22T08:13:00;3.88;;;1.40;;
72569;SDS011;60594;50.204;8.844;2023-12-22T08:15:27;5.40;;;1.67;;
72569;SDS011;60594;50.204;8.844;2023-12-22T08:17:53;3.28;;;1.00;;
72569;SDS011;60594;50.204;8.844;2023-12-22T08:20:20;4.53;;;1.38;;
72569;SDS011;60594;50.204;8.844;2023-12-22T08:22:47;5.20;;;1.20;;
72569;SDS011;60594;50.204;8.844;2023-12-22T08:25:15;5.43;;;1.63;;
72569;SDS011;60594;50.204;8.844;2023-12-22T08:27:42;10.27;;;1.25;;
72569;SDS011;60594;50.204;8.844;2023-12-22T08:30:09;3.97;;;1.25;;
72569;SDS011;60594;50.204;8.844;2023-12-22T08:32:35;4.10;;;1.13;;
72569;SDS011;60594;50.204;8.844;2023-12-22T08:35:03;5.07;;;1.20;;
72569;SDS011;60594;50.204;8.844;2023-12-22T08:37:30;7.53;;;1.92;;
72569;SDS011;60594;50.204;8.844;2023-12-22T08:39:57;6.80;;;1.40;;
72569;SDS011;60594;50.204;8.844;2023-12-22T08:42:24;4.72;;;1.50;;
72569;SDS011;60594;50.204;8.844;2023-12-22T08:44:51;5.93;;;1.42;;
72569;SDS011;60594;50.204;8.844;2023-12-22T08:47:17;6.07;;;1.08;;
72569;SDS011;60594;50.204;8.844;2023-12-22T08:49:44;7.30;;;1.27;;
72569;SDS011;60594;50.204;8.844;2023-12-22T08:52:10;3.15;;;1.10;;
72569;SDS011;60594;50.204;8.844;2023-12-22T08:54:37;2.58;;;1.30;;
72569;SDS011;60594;50.204;8.844;2023-12-22T08:57:03;3.80;;;1.25;;
72569;SDS011;60594;50.204;8.844;2023-12-22T08:59:29;2.33;;;1.02;;
72569;SDS011;60594;50.204;8.844;2023-12-22T09:01:56;2.38;;;0.90;;
72569;SDS011;60594;50.204;8.844;2023-12-22T09:04:22;4.85;;;0.70;;
72569;SDS011;60594;50.204;8.844;2023-12-22T09:06:49;3.75;;;1.25;;
72569;SDS011;60594;50.204;8.844;2023-12-22T09:09:16;2.42;;;0.85;;
72569;SDS011;60594;50.204;8.844;2023-12-22T09:11:43;2.83;;;0.73;;
72569;SDS011;60594;50.204;8.844;2023-12-22T09:14:10;3.63;;;1.02;;
72569;SDS011;60594;50.204;8.844;2023-12-22T09:16:37;2.13;;;1.13;;
72569;SDS011;60594;50.204;8.844;2023-12-22T09:19:04;6.13;;;1.00;;
72569;SDS011;60594;50.204;8.844;2023-12-22T09:21:30;4.38;;;1.27;;
72569;SDS011;60594;50.204;8.844;2023-12-22T09:23:57;1.63;;;0.85;;
72569;SDS011;60594;50.204;8.844;2023-12-22T09:26:23;3.00;;;1.25;;
72569;SDS011;60594;50.204;8.844;2023-12-22T09:28:50;2.95;;;1.27;;
72569;SDS011;60594;50.204;8.844;2023-12-22T09:31:16;4.00;;;1.33;;
72569;SDS011;60594;50.204;8.844;2023-12-22T09:33:43;1.95;;;0.75;;
72569;SDS011;60594;50.204;8.844;2023-12-22T09:36:09;1.50;;;0.50;;
72569;SDS011;60594;50.204;8.844;2023-12-22T09:38:36;1.40;;;1.10;;
72569;SDS011;60594;50.204;8.844;2023-12-22T09:41:03;3.75;;;0.65;;
72569;SDS011;60594;50.204;8.844;2023-12-22T09:43:29;3.63;;;0.82;;
72569;SDS011;60594;50.204;8.844;2023-12-22T09:46:01;2.65;;;0.85;;
72569;SDS011;60594;50.204;8.844;2023-12-22T09:48:28;1.58;;;0.70;;
72569;SDS011;60594;50.204;8.844;2023-12-22T09:50:56;2.80;;;0.85;;
72569;SDS011;60594;50.204;8.844;2023-12-22T09:53:24;5.88;;;1.42;;
72569;SDS011;60594;50.204;8.844;2023-12-22T09:55:52;3.33;;;1.20;;
72569;SDS011;60594;50.204;8.844;2023-12-22T09:58:20;2.17;;;0.88;;
72569;SDS011;60594;50.204;8.844;2023-12-22T10:00:48;4.32;;;1.00;;
72569;SDS011;60594;50.204;8.844;2023-12-22T10:03:16;2.33;;;0.63;;
72569;SDS011;60594;50.204;8.844;2023-12-22T10:05:45;3.92;;;0.95;;
72569;SDS011;60594;50.204;8.844;2023-12-22T10:08:11;1.75;;;0.68;;
72569;SDS011;60594;50.204;8.844;2023-12-22T10:10:39;3.45;;;1.25;;
72569;SDS011;60594;50.204;8.844;2023-12-22T10:13:11;1.95;;;0.73;;
72569;SDS011;60594;50.204;8.844;2023-12-22T10:15:39;2.75;;;0.90;;
72569;SDS011;60594;50.204;8.844;2023-12-22T10:18:07;2.60;;;0.90;;
72569;SDS011;60594;50.204;8.844;2023-12-22T10:20:35;1.92;;;0.82;;
72569;SDS011;60594;50.204;8.844;2023-12-22T10:23:02;3.38;;;1.00;;
72569;SDS011;60594;50.204;8.844;2023-12-22T10:25:29;3.85;;;1.15;;
72569;SDS011;60594;50.204;8.844;2023-12-22T10:27:56;4.63;;;1.15;;
72569;SDS011;60594;50.204;8.844;2023-12-22T10:30:23;2.15;;;0.88;;
72569;SDS011;60594;50.204;8.844;2023-12-22T10:32:53;2.63;;;1.05;;
72569;SDS011;60594;50.204;8.844;2023-12-22T10:35:20;3.75;;;1.00;;
72569;SDS011;60594;50.204;8.844;2023-12-22T10:37:47;6.13;;;1.10;;
72569;SDS011;60594;50.204;8.844;2023-12-22T10:40:14;4.55;;;1.25;;
72569;SDS011;60594;50.204;8.844;2023-12-22T10:42:41;4.15;;;1.10;;
72569;SDS011;60594;50.204;8.844;2023-12-22T10:45:08;6.78;;;1.40;;
72569;SDS011;60594;50.204;8.844;2023-12-22T10:47:34;6.63;;;1.45;;
72569;SDS011;60594;50.204;8.844;2023-12-22T10:50:02;4.55;;;1.67;;
72569;SDS011;60594;50.204;8.844;2023-12-22T10:52:30;8.93;;;1.30;;
72569;SDS011;60594;50.204;8.844;2023-12-22T10:54:57;5.53;;;1.52;;
72569;SDS011;60594;50.204;8.844;2023-12-22T10:57:24;5.45;;;1.20;;
72569;SDS011;60594;50.204;8.844;2023-12-22T10:59:53;4.90;;;1.17;;
72569;SDS011;60594;50.204;8.844;2023-12-22T11:02:23;7.50;;;2.05;;
72569;SDS011;60594;50.204;8.844;2023-12-22T11:04:57;5.68;;;1.50;;
72569;SDS011;60594;50.204;8.844;2023-12-22T11:07:28;4.07;;;1.00;;
72569;SDS011;60594;50.204;8.844;2023-12-22T11:10:00;6.53;;;1.60;;
72569;SDS011;60594;50.204;8.844;2023-12-22T11:12:29;3.55;;;1.38;;
72569;SDS011;60594;50.204;8.844;2023-12-22T11:14:59;8.02;;;2.00;;
72569;SDS011;60594;50.204;8.844;2023-12-22T11:17:27;5.50;;;2.17;;
72569;SDS011;60594;50.204;8.844;2023-12-22T11:19:56;7.13;;;1.27;;
72569;SDS011;60594;50.204;8.844;2023-12-22T11:22:24;4.65;;;1.58;;
72569;SDS011;60594;50.204;8.844;2023-12-22T11:24:51;6.88;;;1.88;;
72569;SDS011;60594;50.204;8.844;2023-12-22T11:27:20;7.13;;;1.88;;
72569;SDS011;60594;50.204;8.844;2023-12-22T11:29:47;6.35;;;1.70;;
72569;SDS011;60594;50.204;8.844;2023-12-22T11:32:15;7.13;;;2.17;;
72569;SDS011;60594;50.204;8.844;2023-12-22T11:34:44;7.22;;;1.80;;
72569;SDS011;60594;50.204;8.844;2023-12-22T11:37:14;4.05;;;1.40;;
72569;SDS011;60594;50.204;8.844;2023-12-22T11:39:42;7.93;;;1.92;;
72569;SDS011;60594;50.204;8.844;2023-12-22T11:42:14;9.48;;;2.30;;
72569;SDS011;60594;50.204;8.844;2023-12-22T11:44:44;5.82;;;1.92;;
72569;SDS011;60594;50.204;8.844;2023-12-22T11:47:10;5.43;;;1.95;;
72569;SDS011;60594;50.204;8.844;2023-12-22T11:52:09;8.13;;;1.73;;
72569;SDS011;60594;50.204;8.844;2023-12-22T11:55:10;6.25;;;1.83;;
72569;SDS011;60594;50.204;8.844;2023-12-22T11:57:30;8.32;;;2.08;;
72569;SDS011;60594;50.204;8.844;2023-12-22T12:02:27;5.03;;;1.90;;
72569;SDS011;60594;50.204;8.844;2023-12-22T12:10:11;7.60;;;1.40;;
72569;SDS011;60594;50.204;8.844;2023-12-22T12:12:38;3.92;;;1.42;;
72569;SDS011;60594;50.204;8.844;2023-12-22T12:15:09;3.67;;;1.20;;
72569;SDS011;60594;50.204;8.844;2023-12-22T12:17:37;3.85;;;1.13;;
72569;SDS011;60594;50.204;8.844;2023-12-22T12:20:06;5.45;;;1.50;;
72569;SDS011;60594;50.204;8.844;2023-12-22T12:22:34;8.02;;;2.17;;
72569;SDS011;60594;50.204;8.844;2023-12-22T12:25:01;5.05;;;1.20;;
72569;SDS011;60594;50.204;8.844;2023-12-22T12:27:27;5.53;;;1.38;;
72569;SDS011;60594;50.204;8.844;2023-12-22T12:29:54;3.85;;;1.00;;
72569;SDS011;60594;50.204;8.844;2023-12-22T12:32:22;3.33;;;1.40;;
72569;SDS011;60594;50.204;8.844;2023-12-22T12:34:49;3.08;;;1.10;;
72569;SDS011;60594;50.204;8.844;2023-12-22T12:37:16;5.20;;;1.45;;
72569;SDS011;60594;50.204;8.844;2023-12-22T12:39:43;5.65;;;1.45;;
72569;SDS011;60594;50.204;8.844;2023-12-22T12:42:12;5.07;;;1.50;;
72569;SDS011;60594;50.204;8.844;2023-12-22T12:44:41;3.22;;;0.98;;
72569;SDS011;60594;50.204;8.844;2023-12-22T12:47:12;5.57;;;1.40;;
72569;SDS011;60594;50.204;8.844;2023-12-22T12:49:40;4.60;;;1.02;;
72569;SDS011;60594;50.204;8.844;2023-12-22T12:52:11;3.35;;;1.27;;
72569;SDS011;60594;50.204;8.844;2023-12-22T12:54:38;3.35;;;1.15;;
72569;SDS011;60594;50.204;8.844;2023-12-22T12:57:05;4.05;;;1.13;;
72569;SDS011;60594;50.204;8.844;2023-12-22T12:59:32;3.08;;;1.05;;
72569;SDS011;60594;50.204;8.844;2023-12-22T13:01:58;5.35;;;1.52;;
72569;SDS011;60594;50.204;8.844;2023-12-22T13:04:37;6.68;;;1.90;;
72569;SDS011;60594;50.204;8.844;2023-12-22T13:07:06;4.22;;;1.30;;
72569;SDS011;60594;50.204;8.844;2023-12-22T13:09:32;4.78;;;1.13;;
72569;SDS011;60594;50.204;8.844;2023-12-22T13:12:02;4.88;;;1.20;;
72569;SDS011;60594;50.204;8.844;2023-12-22T13:14:29;4.25;;;1.42;;
72569;SDS011;60594;50.204;8.844;2023-12-22T13:16:56;2.50;;;0.90;;
72569;SDS011;60594;50.204;8.844;2023-12-22T13:19:24;4.57;;;1.27;;
72569;SDS011;60594;50.204;8.844;2023-12-22T13:21:52;4.90;;;1.60;;
72569;SDS011;60594;50.204;8.844;2023-12-22T13:24:19;4.18;;;0.93;;
72569;SDS011;60594;50.204;8.844;2023-12-22T13:26:46;1.58;;;0.65;;
72569;SDS011;60594;50.204;8.844;2023-12-22T13:29:13;3.28;;;0.85;;
72569;SDS011;60594;50.204;8.844;2023-12-22T13:31:42;2.13;;;0.90;;
72569;SDS011;60594;50.204;8.844;2023-12-22T13:34:12;1.05;;;0.63;;
72569;SDS011;60594;50.204;8.844;2023-12-22T13:36:40;1.33;;;0.57;;
72569;SDS011;60594;50.204;8.844;2023-12-22T13:39:08;2.60;;;0.95;;
72569;SDS011;60594;50.204;8.844;2023-12-22T13:41:39;3.97;;;1.15;;
72569;SDS011;60594;50.204;8.844;2023-12-22T13:44:08;3.20;;;1.15;;
72569;SDS011;60594;50.204;8.844;2023-12-22T13:46:34;3.20;;;1.15;;
72569;SDS011;60594;50.204;8.844;2023-12-22T13:49:02;8.00;;;2.10;;
72569;SDS011;60594;50.204;8.844;2023-12-22T13:51:41;10.30;;;4.50;;
72569;SDS011;60594;50.204;8.844;2023-12-22T13:54:08;5.07;;;1.20;;
72569;SDS011;60594;50.204;8.844;2023-12-22T13:56:35;5.40;;;1.80;;
72569;SDS011;60594;50.204;8.844;2023-12-22T13:59:03;4.25;;;1.10;;
72569;SDS011;60594;50.204;8.844;2023-12-22T14:01:32;2.95;;;1.30;;
72569;SDS011;60594;50.204;8.844;2023-12-22T14:03:59;4.70;;;1.23;;
72569;SDS011;60594;50.204;8.844;2023-12-22T14:06:26;2.53;;;1.13;;
72569;SDS011;60594;50.204;8.844;2023-12-22T14:08:53;2.35;;;1.05;;
72569;SDS011;60594;50.204;8.844;2023-12-22T14:11:20;2.78;;;1.13;;
72569;SDS011;60594;50.204;8.844;2023-12-22T14:13:47;2.83;;;1.15;;
72569;SDS011;60594;50.204;8.844;2023-12-22T14:16:14;1.95;;;0.80;;
72569;SDS011;60594;50.204;8.844;2023-12-22T14:18:43;7.93;;;1.40;;
72569;SDS011;60594;50.204;8.844;2023-12-22T14:21:09;2.45;;;0.90;;
72569;SDS011;60594;50.204;8.844;2023-12-22T14:23:36;2.95;;;1.33;;
72569;SDS011;60594;50.204;8.844;2023-12-22T14:26:03;4.10;;;1.85;;
72569;SDS011;60594;50.204;8.844;2023-12-22T14:28:29;3.38;;;1.10;;
72569;SDS011;60594;50.204;8.844;2023-12-22T14:30:56;4.13;;;2.03;;
72569;SDS011;60594;50.204;8.844;2023-12-22T14:33:22;5.43;;;2.40;;
72569;SDS011;60594;50.204;8.844;2023-12-22T14:35:49;11.65;;;6.38;;
72569;SDS011;60594;50.204;8.844;2023-12-22T14:38:15;2.78;;;1.27;;
72569;SDS011;60594;50.204;8.844;2023-12-22T14:40:42;3.38;;;1.10;;
72569;SDS011;60594;50.204;8.844;2023-12-22T14:43:08;2.88;;;1.35;;
72569;SDS011;60594;50.204;8.844;2023-12-22T14:45:35;2.40;;;1.23;;
72569;SDS011;60594;50.204;8.844;2023-12-22T14:48:01;2.75;;;1.13;;
72569;SDS011;60594;50.204;8.844;2023-12-22T14:50:28;3.25;;;1.35;;
72569;SDS011;60594;50.204;8.844;2023-12-22T14:52:55;1.75;;;0.73;;
72569;SDS011;60594;50.204;8.844;2023-12-22T14:55:21;2.65;;;0.80;;
72569;SDS011;60594;50.204;8.844;2023-12-22T14:57:47;3.13;;;1.02;;
72569;SDS011;60594;50.204;8.844;2023-12-22T15:00:14;3.55;;;1.23;;
72569;SDS011;60594;50.204;8.844;2023-12-22T15:02:41;1.58;;;0.70;;
72569;SDS011;60594;50.204;8.844;2023-12-22T15:05:07;2.53;;;1.23;;
72569;SDS011;60594;50.204;8.844;2023-12-22T15:07:35;2.33;;;0.85;;